Time;durP1;ratioP1;P1;durP2;ratioP2;P2;SDS_P1;SDS_P2;PMS_P1;PMS_P2;Temp;Humidity;BMP_temperature;BMP_pressure;BME280_temperature;BME280_humidity;BME280_pressure;Samples;Min_cycle;Max_cycle;Signal;HPM_P1;HPM_P2
2021/10/24 00:01:45;;;;;;;;;;;4.80;99.90;;;;;;20890185;28;19955;-78
2021/10/24 00:11:46;;;;;;;;;;;4.90;99.90;;;;;;20876631;28;20430;-79
2021/10/24 00:21:46;;;;;;;;;;;4.80;99.90;;;;;;20903723;28;20027;-79
2021/10/24 00:31:47;;;;;;;;;;;4.60;99.90;;;;;;20872128;28;19944;-78
2021/10/24 00:41:48;;;;;;;;;;;4.40;99.90;;;;;;20884125;28;19971;-79
2021/10/24 00:51:49;;;;;;;;;;;4.30;99.90;;;;;;20902035;28;19917;-80
2021/10/24 01:01:49;;;;;;;;;;;3.60;99.90;;;;;;20872398;28;20306;-79
2021/10/24 01:11:51;;;;;;;;;;;3.70;99.90;;;;;;20882743;28;19920;-81
2021/10/24 01:21:52;;;;;;;;;;;3.70;99.90;;;;;;20887035;28;19921;-79
2021/10/24 01:31:53;;;;;;;;;;;3.70;99.90;;;;;;20880931;28;20302;-80
2021/10/24 01:41:54;;;;;;;;;;;3.70;99.90;;;;;;20885549;28;19920;-77
2021/10/24 01:51:59;;;;;;;;;;;3.50;99.90;;;;;;20926661;28;20008;-79
2021/10/24 02:02:00;;;;;;;;;;;3.60;99.90;;;;;;20931137;28;20307;-79
2021/10/24 02:12:33;;;;;;;;;;;3.50;99.90;;;;;;20937893;28;19924;-78
2021/10/24 02:22:40;;;;;;;;;;;3.20;99.90;;;;;;20915464;28;19939;-79
2021/10/24 02:32:48;;;;;;;;;;;3.10;99.90;;;;;;20914065;28;20302;-79
2021/10/24 02:43:13;;;;;;;;;;;3.10;99.90;;;;;;20925379;28;20480;-79
2021/10/24 02:53:14;;;;;;;;;;;2.90;99.90;;;;;;20912557;28;19913;-79
2021/10/24 03:03:15;;;;;;;;;;;2.90;99.90;;;;;;20916804;28;20283;-79
2021/10/24 03:13:17;;;;;;;;;;;2.90;99.90;;;;;;20899340;28;20295;-80
2021/10/24 03:23:22;;;;;;;;;;;2.80;99.90;;;;;;20914499;28;19917;-80
2021/10/24 03:33:22;;;;;;;;;;;2.80;99.90;;;;;;20951946;28;19943;-80
2021/10/24 03:43:23;;;;;;;;;;;2.70;99.90;;;;;;20925815;28;19917;-80
2021/10/24 03:53:24;;;;;;;;;;;2.40;99.90;;;;;;20925425;28;19913;-80
2021/10/24 04:03:25;;;;;;;;;;;2.40;99.90;;;;;;20925851;28;19920;-79
2021/10/24 04:13:26;;;;;;;;;;;2.50;99.90;;;;;;20902398;28;19913;-77
2021/10/24 04:23:27;;;;;;;;;;;2.10;99.90;;;;;;20912730;28;19924;-80
2021/10/24 04:33:29;;;;;;;;;;;2.20;99.90;;;;;;20907640;28;19917;-80
2021/10/24 04:43:30;;;;;;;;;;;2.20;99.90;;;;;;20913413;28;19924;-80
2021/10/24 04:53:31;;;;;;;;;;;2.10;99.90;;;;;;20909314;28;19912;-78
2021/10/24 05:03:32;;;;;;;;;;;2.20;99.90;;;;;;20924824;28;19917;-79
2021/10/24 05:13:33;;;;;;;;;;;2.30;99.90;;;;;;20913937;28;20387;-79
2021/10/24 05:23:35;;;;;;;;;;;2.10;99.90;;;;;;20925579;28;20372;-80
2021/10/24 05:33:36;;;;;;;;;;;1.80;99.90;;;;;;20930016;28;20007;-79
2021/10/24 05:43:59;;;;;;;;;;;1.80;99.90;;;;;;20917558;28;19917;-78
2021/10/24 05:54:00;;;;;;;;;;;1.80;99.90;;;;;;20912023;28;19920;-78
2021/10/24 06:04:06;;;;;;;;;;;1.90;99.90;;;;;;20892243;28;19924;-79
2021/10/24 06:14:22;;;;;;;;;;;1.90;99.90;;;;;;20923274;28;19920;-79
2021/10/24 06:24:23;;;;;;;;;;;2.00;99.90;;;;;;20906474;28;20389;-79
2021/10/24 06:34:24;;;;;;;;;;;1.90;99.90;;;;;;20886463;28;20317;-78
2021/10/24 06:44:54;;;;;;;;;;;2.10;99.90;;;;;;20917189;28;20395;-78
2021/10/24 06:55:14;;;;;;;;;;;2.70;99.90;;;;;;20936753;28;20013;-78
2021/10/24 07:05:53;;;;;;;;;;;2.90;99.90;;;;;;20767125;28;19921;-78
2021/10/24 07:16:00;;;;;;;;;;;3.80;99.90;;;;;;20907508;28;20426;-78
2021/10/24 07:26:01;;;;;;;;;;;4.40;99.90;;;;;;20894208;28;19917;-78
2021/10/24 07:36:02;;;;;;;;;;;5.00;99.90;;;;;;20933098;28;19917;-79
2021/10/24 07:46:03;;;;;;;;;;;5.90;99.90;;;;;;20923312;28;19921;-78
2021/10/24 07:56:04;;;;;;;;;;;5.90;99.90;;;;;;20911606;28;19912;-78
2021/10/24 08:06:32;;;;;;;;;;;6.40;99.90;;;;;;20924255;28;19917;-79
2021/10/24 08:16:36;;;;;;;;;;;7.00;99.90;;;;;;20895286;28;19921;-78
2021/10/24 08:26:38;;;;;;;;;;;7.20;99.90;;;;;;20851138;28;19974;-77
2021/10/24 08:36:39;;;;;;;;;;;7.00;99.90;;;;;;20868522;28;20344;-79
2021/10/24 08:46:40;;;;;;;;;;;7.80;99.90;;;;;;20907410;28;19921;-79
2021/10/24 08:56:41;;;;;;;;;;;9.10;99.90;;;;;;20895850;28;19916;-78
2021/10/24 09:06:48;;;;;;;;;;;9.90;99.90;;;;;;20894704;28;19921;-79
2021/10/24 09:16:52;;;;;;;;;;;10.40;99.90;;;;;;20892263;28;19917;-78
2021/10/24 09:26:53;;;;;;;;;;;10.90;99.90;;;;;;20892852;28;19925;-80
2021/10/24 09:36:58;;;;;;;;;;;11.00;99.90;;;;;;20893656;28;19924;-77
2021/10/24 09:47:22;;;;;;;;;;;11.50;99.90;;;;;;20878201;28;19921;-80
2021/10/24 09:57:23;;;;;;;;;;;12.10;99.90;;;;;;20871859;28;19923;-79
2021/10/24 10:07:24;;;;;;;;;;;12.60;99.90;;;;;;20889371;28;19925;-77
2021/10/24 10:17:24;;;;;;;;;;;12.00;99.90;;;;;;20869868;28;20383;-80
2021/10/24 10:27:27;;;;;;;;;;;12.60;99.90;;;;;;20886067;28;20147;-80
2021/10/24 10:37:51;;;;;;;;;;;12.70;99.90;;;;;;20898564;28;19983;-79
2021/10/24 10:48:02;;;;;;;;;;;12.60;99.90;;;;;;20868670;28;20023;-79
2021/10/24 10:58:22;;;;;;;;;;;13.70;99.90;;;;;;20863911;28;20502;-78
2021/10/24 11:08:41;;;;;;;;;;;13.80;99.90;;;;;;20881873;28;19925;-77
2021/10/24 11:18:42;;;;;;;;;;;14.30;99.90;;;;;;20872542;28;19989;-78
2021/10/24 11:28:43;;;;;;;;;;;14.40;99.90;;;;;;20875157;28;19929;-78
2021/10/24 11:38:44;;;;;;;;;;;14.70;99.90;;;;;;20876167;28;19932;-80
2021/10/24 11:48:45;;;;;;;;;;;15.20;99.90;;;;;;20860607;28;20011;-79
2021/10/24 11:59:13;;;;;;;;;;;15.00;99.90;;;;;;20875883;28;19913;-79
2021/10/24 12:09:23;;;;;;;;;;;15.00;99.90;;;;;;20888255;28;19928;-79
2021/10/24 12:19:32;;;;;;;;;;;16.40;99.90;;;;;;20897069;28;19916;-80
2021/10/24 12:29:33;;;;;;;;;;;16.20;99.90;;;;;;20874058;28;20035;-77
2021/10/24 12:39:33;;;;;;;;;;;16.50;99.90;;;;;;20883866;28;20335;-78
2021/10/24 12:49:34;;;;;;;;;;;16.70;99.90;;;;;;20887114;28;19936;-78
2021/10/24 12:59:36;;;;;;;;;;;16.60;99.90;;;;;;20889071;28;19920;-81
2021/10/24 13:09:36;;;;;;;;;;;17.00;99.90;;;;;;20891435;28;19925;-79
2021/10/24 13:19:37;;;;;;;;;;;17.60;99.90;;;;;;20892592;28;19917;-79
2021/10/24 13:29:38;;;;;;;;;;;17.70;99.90;;;;;;20873081;28;19921;-79
2021/10/24 13:39:39;;;;;;;;;;;17.40;99.90;;;;;;20890652;28;20441;-77
2021/10/24 13:49:40;;;;;;;;;;;16.70;99.90;;;;;;20886921;28;19921;-78
2021/10/24 13:59:41;;;;;;;;;;;16.90;99.90;;;;;;20885988;28;19921;-78
2021/10/24 14:09:42;;;;;;;;;;;17.20;99.90;;;;;;20894151;28;20480;-78
2021/10/24 14:19:43;;;;;;;;;;;16.90;99.90;;;;;;20871681;28;20489;-78
2021/10/24 14:29:44;;;;;;;;;;;16.60;99.90;;;;;;20894382;28;19968;-81
2021/10/24 14:39:46;;;;;;;;;;;16.90;99.90;;;;;;20905857;28;19920;-79
2021/10/24 14:49:47;;;;;;;;;;;17.40;99.90;;;;;;20918603;28;19924;-77
2021/10/24 14:59:47;;;;;;;;;;;17.40;99.90;;;;;;20881583;28;19920;-81
2021/10/24 15:09:48;;;;;;;;;;;17.30;99.90;;;;;;20874895;28;19927;-79
2021/10/24 15:30:02;;;;;;;;;;;18.80;99.90;;;;;;20884412;28;19925;-77
2021/10/24 15:40:06;;;;;;;;;;;18.60;99.90;;;;;;20886947;28;20414;-76
2021/10/24 15:50:10;;;;;;;;;;;16.90;99.90;;;;;;20898600;28;19933;-78
2021/10/24 16:00:11;;;;;;;;;;;16.50;99.90;;;;;;20890004;28;19917;-82
2021/10/24 16:10:12;;;;;;;;;;;13.90;99.90;;;;;;20890537;28;19998;-80
2021/10/24 16:20:17;;;;;;;;;;;11.60;99.90;;;;;;20862785;28;19969;-81
2021/10/24 16:30:18;;;;;;;;;;;10.80;99.90;;;;;;20884181;28;19921;-79
2021/10/24 16:40:22;;;;;;;;;;;10.90;99.90;;;;;;20871456;28;19991;-82
2021/10/24 16:50:24;;;;;;;;;;;10.30;99.90;;;;;;20849582;28;19925;-80
2021/10/24 17:00:25;;;;;;;;;;;10.20;99.90;;;;;;20861813;28;19923;-79
2021/10/24 17:10:27;;;;;;;;;;;10.40;99.90;;;;;;20875292;28;19921;-79
2021/10/24 17:20:28;;;;;;;;;;;9.70;99.90;;;;;;20897074;28;19928;-77
2021/10/24 17:30:29;;;;;;;;;;;9.90;99.90;;;;;;20915613;28;20337;-81
2021/10/24 17:40:30;;;;;;;;;;;9.10;99.90;;;;;;20894163;28;20017;-80
2021/10/24 17:50:31;;;;;;;;;;;8.70;99.90;;;;;;20910759;28;20019;-81
2021/10/24 18:00:31;;;;;;;;;;;8.90;99.90;;;;;;20897484;28;19924;-82
2021/10/24 18:10:33;;;;;;;;;;;8.20;99.90;;;;;;20889349;28;19925;-81
2021/10/24 18:20:33;;;;;;;;;;;8.00;99.90;;;;;;20895785;28;21159;-79
2021/10/24 18:30:35;;;;;;;;;;;7.80;99.90;;;;;;20885128;28;19955;-81
2021/10/24 18:40:36;;;;;;;;;;;7.90;99.90;;;;;;20884592;28;20018;-80
2021/10/24 18:50:38;;;;;;;;;;;7.60;99.90;;;;;;20894200;28;19925;-81
2021/10/24 19:00:39;;;;;;;;;;;7.30;99.90;;;;;;20889473;28;19940;-81
2021/10/24 19:10:40;;;;;;;;;;;7.10;99.90;;;;;;20889632;28;19928;-81
2021/10/24 19:20:41;;;;;;;;;;;7.10;99.90;;;;;;20897103;28;20024;-78
2021/10/24 19:30:41;;;;;;;;;;;7.10;99.90;;;;;;20885011;28;19920;-80
2021/10/24 19:40:42;;;;;;;;;;;7.10;99.90;;;;;;20912519;28;19924;-82
2021/10/24 19:51:13;;;;;;;;;;;7.10;99.90;;;;;;20758321;28;19926;-81
2021/10/24 20:01:18;;;;;;;;;;;7.00;99.90;;;;;;20754498;28;19921;-80
2021/10/24 20:11:20;;;;;;;;;;;6.90;99.90;;;;;;20739580;28;19921;-81
2021/10/24 20:21:21;;;;;;;;;;;6.50;99.90;;;;;;20849640;28;20024;-80
2021/10/24 20:31:23;;;;;;;;;;;6.30;99.90;;;;;;20914786;28;20382;-79
2021/10/24 20:41:24;;;;;;;;;;;6.30;99.90;;;;;;20910714;28;19982;-79
2021/10/24 20:51:25;;;;;;;;;;;6.30;99.90;;;;;;20922178;28;19924;-80
2021/10/24 21:01:25;;;;;;;;;;;6.20;99.90;;;;;;20916100;28;19975;-80
2021/10/24 21:11:26;;;;;;;;;;;6.10;99.90;;;;;;20905582;28;19931;-81
2021/10/24 21:21:27;;;;;;;;;;;5.90;99.90;;;;;;20939115;28;19912;-81
2021/10/24 21:31:28;;;;;;;;;;;5.80;99.90;;;;;;20939524;28;19921;-80
2021/10/24 21:41:29;;;;;;;;;;;5.60;99.90;;;;;;20938771;28;20377;-81
2021/10/24 21:51:29;;;;;;;;;;;5.80;99.90;;;;;;20935940;28;20346;-82
2021/10/24 22:01:30;;;;;;;;;;;5.60;99.90;;;;;;20927845;28;19966;-81
2021/10/24 22:11:31;;;;;;;;;;;5.50;99.90;;;;;;20927340;28;19921;-81
2021/10/24 22:21:32;;;;;;;;;;;5.20;99.90;;;;;;20925299;28;19913;-81
2021/10/24 22:31:36;;;;;;;;;;;5.20;99.90;;;;;;20924846;28;19917;-81
2021/10/24 22:41:41;;;;;;;;;;;5.30;99.90;;;;;;20924022;28;19920;-81
2021/10/24 22:51:42;;;;;;;;;;;5.40;99.90;;;;;;20922257;28;19921;-80
2021/10/24 23:01:43;;;;;;;;;;;5.40;99.90;;;;;;20922567;28;19934;-81
2021/10/24 23:11:44;;;;;;;;;;;5.40;99.90;;;;;;20931965;28;19917;-81
2021/10/24 23:21:45;;;;;;;;;;;5.40;99.90;;;;;;20920571;28;19925;-82
2021/10/24 23:31:46;;;;;;;;;;;5.40;99.90;;;;;;20923414;28;19917;-81
2021/10/24 23:41:47;;;;;;;;;;;5.30;99.90;;;;;;21009967;28;19912;-81
2021/10/24 23:51:47;;;;;;;;;;;5.30;99.90;;;;;;21045092;28;19900;-81
